Brymbo, United Kingdom
Current Conditions -  °F | °C
As of 2:20 PM on Wednesday 28 Jan 2015 (Local Time) from EGNR Reporting Station
Scattered Clouds Scattered Clouds  
Wind Chill: -1°   Ceiling: Unl
Heat Index:   Visibility: 6mi
Dew Point: -2°   Wind: 25mph
Humidity: 61%   Direction: 280°W
Pressure: 29.5"   Gusts: 43mph
Location:  53.07°N, 3.07°W
Report Text: EGNR 281420Z 28022G37KT 9999 FEW018 SCT022CB SCT036 05/M02 Q0999
Loading
Personal Weather Stations






























Interactive Weather Map New forecast layout! Learn more

10-Day Weather Forecast

Advertisements
Track Severe Weather on mobile